createdAt,value
2017-12-02T00:02:05.399Z,1.50
2017-12-02T00:04:34.803Z,1.90
2017-12-02T00:07:03.877Z,1.23
2017-12-02T00:09:32.938Z,1.13
2017-12-02T00:12:01.963Z,1.30
2017-12-02T00:14:30.977Z,1.30
2017-12-02T00:17:00.043Z,1.57
2017-12-02T00:19:29.251Z,1.27
2017-12-02T00:21:58.327Z,1.30
2017-12-02T00:24:28.050Z,0.90
2017-12-02T00:26:57.086Z,1.10
2017-12-02T00:29:26.203Z,1.33
2017-12-02T00:31:55.327Z,0.80
2017-12-02T00:34:24.335Z,1.10
2017-12-02T00:36:53.392Z,1.00
2017-12-02T00:39:29.839Z,0.90
2017-12-02T00:42:06.594Z,1.20
2017-12-02T00:44:35.666Z,1.10
2017-12-02T00:47:04.750Z,0.90
2017-12-02T00:49:33.770Z,0.83
2017-12-02T00:52:02.831Z,1.00
2017-12-02T00:54:31.904Z,1.10
2017-12-02T00:57:00.970Z,1.00
2017-12-02T00:59:30.023Z,1.10
2017-12-02T01:01:59.098Z,1.00
2017-12-02T01:04:28.139Z,1.03
2017-12-02T01:06:57.191Z,1.00
2017-12-02T01:09:26.235Z,1.07
2017-12-02T01:11:55.356Z,1.10
2017-12-02T01:14:24.437Z,0.87
2017-12-02T01:16:53.531Z,1.20
2017-12-02T01:19:22.582Z,1.30
2017-12-02T01:21:59.279Z,1.13
2017-12-02T01:24:32.163Z,1.00
2017-12-02T01:27:03.035Z,1.10
2017-12-02T01:29:33.158Z,1.20
2017-12-02T01:32:02.230Z,1.03
2017-12-02T01:34:31.281Z,1.20
2017-12-02T01:37:00.339Z,1.40
2017-12-02T01:39:29.390Z,1.13
2017-12-02T01:41:58.460Z,1.20
2017-12-02T01:44:27.518Z,1.10
2017-12-02T01:46:56.552Z,1.10
2017-12-02T01:49:25.600Z,1.40
2017-12-02T01:52:00.953Z,0.90
2017-12-02T01:54:29.999Z,1.20
2017-12-02T01:57:00.602Z,1.00
2017-12-02T01:59:29.660Z,1.20
2017-12-02T02:01:59.911Z,1.00
2017-12-02T02:04:28.944Z,1.20
2017-12-02T02:06:57.990Z,1.10
2017-12-02T02:09:27.038Z,1.40
2017-12-02T02:12:03.582Z,1.10
2017-12-02T02:14:32.680Z,1.40
2017-12-02T02:17:01.734Z,1.23
2017-12-02T02:19:30.771Z,1.20
2017-12-02T02:22:00.007Z,1.00
2017-12-02T02:24:29.339Z,1.20
2017-12-02T02:26:59.026Z,1.07
2017-12-02T02:29:28.036Z,1.00
2017-12-02T02:31:57.171Z,1.10
2017-12-02T02:34:26.207Z,1.17
2017-12-02T02:36:55.515Z,1.20
2017-12-02T02:39:24.574Z,0.90
2017-12-02T02:41:57.851Z,1.00
2017-12-02T02:44:27.092Z,1.10
2017-12-02T02:46:56.346Z,1.23
2017-12-02T02:49:25.342Z,1.10
2017-12-02T02:51:54.559Z,0.93
2017-12-02T02:54:23.662Z,1.43
2017-12-02T02:56:52.705Z,1.27
2017-12-02T02:59:21.761Z,1.40
2017-12-02T03:01:50.807Z,1.27
2017-12-02T03:04:19.939Z,1.10
2017-12-02T03:06:49.304Z,1.40
2017-12-02T03:09:18.379Z,1.30
2017-12-02T03:11:47.468Z,1.33
2017-12-02T03:14:16.566Z,1.30
2017-12-02T03:16:45.858Z,1.30
2017-12-02T03:19:14.921Z,1.27
2017-12-02T03:21:43.966Z,1.53
2017-12-02T03:24:13.114Z,1.20
2017-12-02T03:26:42.230Z,1.23
2017-12-02T03:29:11.487Z,1.30
2017-12-02T03:31:53.331Z,1.10
2017-12-02T03:34:22.559Z,1.00
2017-12-02T03:36:51.664Z,1.00
2017-12-02T03:39:20.716Z,1.37
2017-12-02T03:41:49.872Z,1.03
2017-12-02T03:44:24.995Z,1.10
2017-12-02T03:46:54.157Z,1.30
2017-12-02T03:49:23.415Z,1.00
2017-12-02T03:51:52.635Z,0.90
2017-12-02T03:54:21.994Z,1.20
2017-12-02T03:56:51.076Z,1.20
2017-12-02T03:59:20.150Z,0.90
2017-12-02T04:01:49.259Z,1.03
2017-12-02T04:04:19.464Z,1.23
2017-12-02T04:06:50.669Z,1.10
2017-12-02T04:09:19.709Z,1.17
2017-12-02T04:11:48.895Z,1.00
2017-12-02T04:14:18.053Z,1.10
2017-12-02T04:16:47.101Z,1.30
2017-12-02T04:19:16.214Z,1.10
2017-12-02T04:21:45.342Z,1.00
2017-12-02T04:24:14.436Z,1.10
2017-12-02T04:26:50.841Z,1.00
2017-12-02T04:29:20.552Z,1.00
2017-12-02T04:31:49.732Z,1.00
2017-12-02T04:34:18.814Z,1.10
2017-12-02T04:36:47.846Z,1.13
2017-12-02T04:39:16.924Z,1.13
2017-12-02T04:41:46.026Z,1.00
2017-12-02T04:44:15.097Z,1.10
2017-12-02T04:46:44.261Z,1.10
2017-12-02T04:49:13.374Z,1.00
2017-12-02T04:51:42.419Z,1.20
2017-12-02T04:54:11.479Z,1.23
2017-12-02T04:56:40.611Z,2.00
2017-12-02T04:59:09.720Z,1.00
2017-12-02T05:01:51.078Z,1.27
2017-12-02T05:04:20.147Z,0.90
2017-12-02T05:06:52.516Z,1.03
2017-12-02T05:09:21.858Z,1.10
2017-12-02T05:11:50.913Z,1.17
2017-12-02T05:14:19.970Z,1.17
2017-12-02T05:16:49.026Z,1.03
2017-12-02T05:19:18.102Z,1.20
2017-12-02T05:21:47.188Z,1.30
2017-12-02T05:24:16.242Z,1.20
2017-12-02T05:26:45.272Z,1.30
2017-12-02T05:29:14.813Z,1.27
2017-12-02T05:31:50.570Z,1.17
2017-12-02T05:34:33.551Z,1.50
2017-12-02T05:37:02.641Z,1.30
2017-12-02T05:39:31.689Z,1.40
2017-12-02T05:42:00.769Z,1.60
2017-12-02T05:44:43.096Z,1.60
2017-12-02T05:47:12.199Z,1.60
2017-12-02T05:49:41.308Z,1.70
2017-12-02T05:52:10.407Z,2.30
2017-12-02T05:54:51.518Z,1.63
2017-12-02T05:57:20.605Z,1.30
2017-12-02T05:59:49.724Z,1.53
2017-12-02T06:02:18.790Z,1.40
2017-12-02T06:04:47.870Z,2.17
2017-12-02T06:07:16.923Z,1.67
2017-12-02T06:09:46.036Z,1.70
2017-12-02T06:12:15.131Z,1.50
2017-12-02T06:14:44.219Z,1.50
2017-12-02T06:17:13.342Z,1.77
2017-12-02T06:19:42.404Z,1.33
2017-12-02T06:22:11.475Z,1.50
2017-12-02T06:24:40.548Z,1.70
2017-12-02T06:27:11.378Z,1.50
2017-12-02T06:29:40.448Z,1.83
2017-12-02T06:32:09.526Z,1.77
2017-12-02T06:34:38.952Z,1.70
2017-12-02T06:37:08.651Z,1.63
2017-12-02T06:39:37.736Z,1.40
2017-12-02T06:42:06.839Z,2.00
2017-12-02T06:44:43.750Z,1.53
2017-12-02T06:47:12.872Z,1.90
2017-12-02T06:49:41.922Z,1.77
2017-12-02T06:52:10.968Z,1.33
2017-12-02T06:54:40.025Z,1.93
2017-12-02T06:57:09.139Z,1.80
2017-12-02T06:59:38.202Z,1.43
2017-12-02T07:02:07.342Z,1.90
2017-12-02T07:04:44.840Z,1.30
2017-12-02T07:07:13.966Z,1.43
2017-12-02T07:09:43.133Z,1.53
2017-12-02T07:12:12.251Z,1.67
2017-12-02T07:14:41.323Z,1.50
2017-12-02T07:17:10.452Z,2.27
2017-12-02T07:19:39.578Z,1.57
2017-12-02T07:22:08.702Z,1.40
2017-12-02T07:24:37.847Z,1.83
2017-12-02T07:27:07.016Z,1.50
2017-12-02T07:29:36.074Z,1.63
2017-12-02T07:32:05.163Z,2.10
2017-12-02T07:34:34.463Z,1.53
2017-12-02T07:37:03.551Z,1.40
2017-12-02T07:39:32.660Z,1.60
2017-12-02T07:42:01.833Z,1.40
2017-12-02T07:44:31.785Z,1.93
2017-12-02T07:47:00.987Z,1.57
2017-12-02T07:49:30.030Z,1.80
2017-12-02T07:51:59.106Z,1.40
2017-12-02T07:54:28.350Z,1.40
2017-12-02T07:56:57.423Z,1.53
2017-12-02T07:59:33.641Z,2.10
2017-12-02T08:02:03.371Z,1.70
2017-12-02T08:04:32.693Z,2.20
2017-12-02T08:07:01.801Z,1.63
2017-12-02T08:09:30.906Z,3.03
2017-12-02T08:12:01.532Z,1.60
2017-12-02T08:14:38.288Z,1.37
2017-12-02T08:17:07.378Z,2.20
2017-12-02T08:19:36.447Z,1.67
2017-12-02T08:22:06.096Z,1.80
2017-12-02T08:24:38.399Z,1.70
2017-12-02T08:27:26.722Z,1.60
2017-12-02T08:29:55.818Z,2.30
2017-12-02T08:32:24.951Z,1.50
2017-12-02T08:34:53.998Z,1.50
2017-12-02T08:37:29.372Z,1.70
2017-12-02T08:39:58.567Z,1.13
2017-12-02T08:42:27.622Z,2.90
2017-12-02T08:44:59.632Z,1.70
2017-12-02T08:47:28.702Z,1.40
2017-12-02T08:49:57.996Z,1.40
2017-12-02T08:52:27.194Z,1.33
2017-12-02T08:54:56.291Z,1.33
2017-12-02T08:57:25.546Z,1.60
2017-12-02T08:59:54.767Z,1.40
2017-12-02T09:02:35.978Z,1.70
2017-12-02T09:05:05.182Z,1.80
2017-12-02T09:07:34.674Z,1.33
2017-12-02T09:10:03.806Z,1.60
2017-12-02T09:12:32.890Z,2.10
2017-12-02T09:15:09.671Z,1.30
2017-12-02T09:17:46.300Z,1.67
2017-12-02T09:20:15.483Z,2.83
2017-12-02T09:22:44.617Z,1.67
2017-12-02T09:25:13.722Z,1.53
2017-12-02T09:27:42.803Z,1.20
2017-12-02T09:30:11.923Z,1.33
2017-12-02T09:32:41.027Z,1.60
2017-12-02T09:35:16.405Z,1.40
2017-12-02T09:37:45.538Z,1.33
2017-12-02T09:40:15.338Z,1.50
2017-12-02T09:42:44.476Z,1.43
2017-12-02T09:45:13.607Z,1.73
2017-12-02T09:47:42.847Z,1.50
2017-12-02T09:50:11.993Z,1.50
2017-12-02T09:52:48.754Z,1.70
2017-12-02T09:55:17.873Z,1.80
2017-12-02T09:57:46.983Z,2.30
2017-12-02T10:00:16.134Z,2.00
2017-12-02T10:02:45.197Z,1.80
2017-12-02T10:05:14.290Z,1.40
2017-12-02T10:07:54.039Z,1.70
2017-12-02T10:10:23.152Z,3.10
2017-12-02T10:12:52.239Z,1.80
2017-12-02T10:15:21.431Z,1.90
2017-12-02T10:17:50.570Z,2.27
2017-12-02T10:20:19.835Z,1.50
2017-12-02T10:22:49.018Z,1.43
2017-12-02T10:25:18.193Z,1.70
2017-12-02T10:27:47.262Z,1.30
2017-12-02T10:30:16.319Z,2.57
2017-12-02T10:32:45.380Z,1.37
2017-12-02T10:35:14.806Z,1.53
2017-12-02T10:37:43.966Z,1.80
2017-12-02T10:40:13.163Z,1.67
2017-12-02T10:42:42.266Z,1.50
2017-12-02T10:45:12.518Z,2.20
2017-12-02T10:47:41.650Z,3.63
2017-12-02T10:50:10.753Z,2.37
2017-12-02T10:52:39.909Z,1.70
2017-12-02T10:55:08.967Z,1.77
2017-12-02T10:57:38.035Z,2.20
2017-12-02T11:00:07.086Z,2.93
2017-12-02T11:02:36.128Z,1.73
2017-12-02T11:05:05.213Z,1.97
2017-12-02T11:07:35.006Z,1.50
2017-12-02T11:10:04.175Z,1.30
2017-12-02T11:12:33.227Z,1.13
2017-12-02T11:15:02.239Z,1.20
2017-12-02T11:17:44.299Z,2.17
2017-12-02T11:20:13.327Z,1.43
2017-12-02T11:22:42.407Z,1.40
2017-12-02T11:25:11.449Z,2.10
2017-12-02T11:27:40.487Z,1.43
2017-12-02T11:30:09.570Z,1.50
2017-12-02T11:32:38.700Z,1.20
2017-12-02T11:35:07.821Z,1.47
2017-12-02T11:37:36.894Z,1.57
2017-12-02T11:40:12.479Z,1.40
2017-12-02T11:42:41.620Z,1.57
2017-12-02T11:45:10.679Z,1.47
2017-12-02T11:47:40.473Z,1.97
2017-12-02T11:50:09.546Z,1.43
2017-12-02T11:52:57.205Z,1.67
2017-12-02T11:55:26.230Z,1.70
2017-12-02T11:57:55.230Z,1.97
2017-12-02T12:00:24.294Z,1.47
2017-12-02T12:02:53.918Z,1.30
2017-12-02T12:05:22.995Z,1.73
2017-12-02T12:07:52.250Z,1.73
2017-12-02T12:10:21.475Z,1.30
2017-12-02T12:12:51.193Z,1.40
2017-12-02T12:15:27.824Z,1.30
2017-12-02T12:18:11.334Z,1.73
2017-12-02T12:20:41.820Z,1.50
2017-12-02T12:23:10.879Z,1.97
2017-12-02T12:25:40.072Z,2.40
2017-12-02T12:28:16.114Z,2.50
2017-12-02T12:30:45.117Z,1.80
2017-12-02T12:33:26.964Z,1.87
2017-12-02T12:35:56.028Z,1.60
2017-12-02T12:38:25.099Z,1.50
2017-12-02T12:40:54.886Z,1.60
2017-12-02T12:43:33.130Z,1.50
2017-12-02T12:46:02.267Z,1.57
2017-12-02T12:48:31.285Z,1.70
2017-12-02T12:51:00.556Z,2.10
2017-12-02T12:53:29.793Z,1.60
2017-12-02T12:55:59.011Z,3.17
2017-12-02T12:58:28.107Z,2.37
2017-12-02T13:00:57.142Z,2.00
2017-12-02T13:03:26.199Z,1.50
2017-12-02T13:05:55.216Z,2.57
2017-12-02T13:08:24.226Z,2.07
2017-12-02T13:10:53.286Z,1.40
2017-12-02T13:13:22.373Z,1.60
2017-12-02T13:15:54.724Z,1.50
2017-12-02T13:18:23.788Z,1.93
2017-12-02T13:20:53.077Z,2.07
2017-12-02T13:23:35.693Z,2.90
2017-12-02T13:26:04.873Z,1.90
2017-12-02T13:28:33.959Z,1.83
2017-12-02T13:42:36.700Z,1.63
2017-12-02T13:45:05.803Z,1.60
2017-12-02T13:47:34.867Z,1.17
2017-12-02T13:50:05.076Z,1.40
2017-12-02T13:52:34.155Z,1.47
2017-12-02T13:55:03.347Z,1.33
2017-12-02T13:57:32.408Z,1.17
2017-12-02T14:00:01.568Z,1.10
2017-12-02T14:02:30.651Z,1.20
2017-12-02T14:04:59.757Z,1.30
2017-12-02T14:07:28.843Z,1.07
2017-12-02T14:09:57.944Z,1.20
2017-12-02T14:12:28.651Z,1.33
2017-12-02T14:14:58.241Z,1.50
2017-12-02T14:17:27.488Z,1.30
2017-12-02T14:19:56.475Z,1.40
2017-12-02T14:22:25.508Z,1.77
2017-12-02T14:24:58.675Z,1.53
2017-12-02T14:27:34.159Z,1.53
2017-12-02T14:30:03.257Z,1.57
2017-12-02T14:32:38.871Z,1.10
2017-12-02T14:35:08.034Z,1.30
2017-12-02T14:37:37.103Z,2.30
2017-12-02T14:40:06.113Z,2.00
2017-12-02T14:42:41.462Z,1.47
2017-12-02T14:45:10.515Z,1.20
2017-12-02T14:47:39.550Z,1.37
2017-12-02T14:50:08.572Z,1.47
2017-12-02T14:52:37.645Z,1.00
2017-12-02T14:55:14.331Z,1.60
2017-12-02T14:57:43.330Z,1.23
2017-12-02T15:00:12.370Z,1.50
2017-12-02T15:02:41.456Z,1.50
2017-12-02T15:05:10.538Z,1.50
2017-12-02T15:07:52.662Z,1.40
2017-12-02T15:10:21.695Z,1.13
2017-12-02T15:12:50.728Z,1.07
2017-12-02T15:15:19.839Z,1.00
2017-12-02T15:17:48.966Z,1.60
2017-12-02T15:20:25.100Z,1.70
2017-12-02T15:23:08.391Z,1.23
2017-12-02T15:25:37.455Z,1.10
2017-12-02T15:28:07.014Z,1.17
2017-12-02T15:30:36.054Z,1.30
2017-12-02T15:33:05.116Z,1.70
2017-12-02T15:35:34.122Z,1.47
2017-12-02T15:38:03.179Z,1.73
2017-12-02T15:40:32.204Z,1.10
2017-12-02T15:43:01.512Z,1.10
2017-12-02T15:45:31.246Z,1.33
2017-12-02T15:48:00.858Z,1.40
2017-12-02T15:50:29.925Z,1.73
2017-12-02T15:52:58.984Z,2.07
2017-12-02T15:55:28.075Z,1.73
2017-12-02T15:58:00.901Z,1.20
2017-12-02T16:00:29.992Z,1.40
2017-12-02T16:02:59.041Z,1.00
2017-12-02T16:05:28.129Z,1.27
2017-12-02T16:08:04.362Z,0.90
2017-12-02T16:10:33.412Z,1.43
2017-12-02T16:13:02.472Z,1.20
2017-12-02T16:15:32.111Z,1.10
2017-12-02T16:18:01.219Z,1.30
2017-12-02T16:20:30.272Z,1.20
2017-12-02T16:22:59.348Z,1.70
2017-12-02T16:25:28.450Z,1.03
2017-12-02T16:27:57.487Z,1.10
2017-12-02T16:30:26.575Z,1.10
2017-12-02T16:32:55.677Z,0.90
2017-12-02T16:35:24.709Z,1.10
2017-12-02T16:37:54.662Z,1.10
2017-12-02T16:40:23.859Z,0.90
2017-12-02T16:42:53.822Z,1.10
2017-12-02T16:45:23.282Z,1.13
2017-12-02T16:47:52.983Z,1.20
2017-12-02T16:50:22.079Z,1.27
2017-12-02T16:52:55.048Z,1.47
2017-12-02T16:55:24.150Z,1.60
2017-12-02T16:57:53.607Z,1.17
2017-12-02T17:00:23.044Z,1.37
2017-12-02T17:02:53.392Z,1.37
2017-12-02T17:05:22.678Z,1.10
2017-12-02T17:07:51.771Z,1.23
2017-12-02T17:10:20.831Z,1.57
2017-12-02T17:12:55.911Z,1.37
2017-12-02T17:15:25.036Z,1.10
2017-12-02T17:17:54.107Z,1.27
2017-12-02T17:20:23.251Z,1.20
2017-12-02T17:23:01.975Z,1.30
2017-12-02T17:25:31.971Z,1.37
2017-12-02T17:28:01.044Z,1.53
2017-12-02T17:30:30.670Z,1.13
2017-12-02T17:33:00.665Z,1.37
2017-12-02T17:35:29.737Z,1.47
2017-12-02T17:37:58.773Z,1.23
2017-12-02T17:40:27.945Z,1.20
2017-12-02T17:42:58.786Z,1.20
2017-12-02T17:45:27.866Z,1.20
2017-12-02T17:47:57.074Z,1.10
2017-12-02T17:50:26.129Z,1.40
2017-12-02T17:52:55.292Z,1.20
2017-12-02T17:55:24.422Z,1.33
2017-12-02T17:58:00.769Z,1.17
2017-12-02T18:00:29.823Z,1.43
2017-12-02T18:02:58.884Z,1.60
2017-12-02T18:05:33.944Z,1.50
2017-12-02T18:08:03.011Z,1.57
2017-12-02T18:10:32.072Z,1.60
2017-12-02T18:13:01.789Z,1.97
2017-12-02T18:15:30.899Z,2.27
2017-12-02T18:17:59.944Z,2.80
2017-12-02T18:20:28.985Z,2.40
2017-12-02T18:22:58.035Z,2.27
2017-12-02T18:25:27.206Z,2.27
2017-12-02T18:27:56.253Z,2.53
2017-12-02T18:30:25.258Z,2.70
2017-12-02T18:32:54.352Z,2.80
2017-12-02T18:35:23.422Z,2.33
2017-12-02T18:37:52.500Z,2.40
2017-12-02T18:40:21.614Z,2.40
2017-12-02T18:42:50.632Z,2.50
2017-12-02T18:45:32.957Z,2.43
2017-12-02T18:48:02.005Z,2.13
2017-12-02T18:50:31.106Z,2.47
2017-12-02T18:53:00.217Z,2.23
2017-12-02T18:55:29.273Z,1.97
2017-12-02T18:57:58.320Z,2.60
2017-12-02T19:00:27.342Z,2.57
2017-12-02T19:02:56.483Z,2.17
2017-12-02T19:05:25.509Z,3.43
2017-12-02T19:07:54.619Z,2.73
2017-12-02T19:10:29.614Z,2.60
2017-12-02T19:12:58.723Z,2.50
2017-12-02T19:15:28.139Z,2.37
2017-12-02T19:17:57.240Z,2.97
2017-12-02T19:20:26.311Z,3.47
2017-12-02T19:22:55.375Z,2.03
2017-12-02T19:25:24.410Z,2.47
2017-12-02T19:27:53.412Z,2.27
2017-12-02T19:30:22.420Z,2.47
2017-12-02T19:32:51.468Z,2.60
2017-12-02T19:35:20.538Z,2.27
2017-12-02T19:37:49.540Z,2.70
2017-12-02T19:40:20.172Z,2.73
2017-12-02T19:42:49.371Z,2.33
2017-12-02T19:45:18.823Z,2.20
2017-12-02T19:47:47.865Z,2.20
2017-12-02T19:50:17.356Z,2.20
2017-12-02T19:52:48.150Z,2.60
2017-12-02T19:55:17.296Z,2.37
2017-12-02T19:57:46.708Z,1.80
2017-12-02T20:00:16.030Z,1.80
2017-12-02T20:02:53.251Z,2.20
2017-12-02T20:05:22.331Z,1.60
2017-12-02T20:07:52.530Z,1.97
2017-12-02T20:10:21.863Z,2.17
2017-12-02T20:12:51.175Z,2.30
2017-12-02T20:15:20.426Z,2.70
2017-12-02T20:17:49.490Z,3.00
2017-12-02T20:20:18.808Z,2.40
2017-12-02T20:22:47.891Z,2.10
2017-12-02T20:25:17.034Z,2.30
2017-12-02T20:27:47.328Z,2.10
2017-12-02T20:30:16.375Z,1.90
2017-12-02T20:32:45.791Z,1.70
2017-12-02T20:35:14.908Z,2.03
2017-12-02T20:37:43.982Z,2.40
2017-12-02T20:40:13.092Z,2.00
2017-12-02T20:42:50.431Z,2.00
2017-12-02T20:45:19.755Z,2.40
2017-12-02T20:47:50.186Z,2.00
2017-12-02T20:50:19.186Z,2.10
2017-12-02T20:52:48.241Z,2.67
2017-12-02T20:55:17.820Z,2.10
2017-12-02T20:57:53.151Z,2.30
2017-12-02T21:00:22.244Z,1.97
2017-12-02T21:31:07.273Z,2.90
2017-12-02T21:33:36.371Z,2.43
2017-12-02T21:36:05.666Z,2.60
2017-12-02T21:38:34.743Z,2.67
2017-12-02T21:41:07.569Z,3.43
2017-12-02T21:43:36.711Z,3.30
2017-12-02T21:46:05.887Z,2.53
2017-12-02T21:48:34.984Z,3.40
2017-12-02T21:51:04.093Z,5.97
2017-12-02T21:53:46.216Z,6.60
2017-12-02T21:56:15.299Z,3.47
2017-12-02T21:58:44.346Z,2.93
2017-12-02T22:01:13.746Z,3.17
2017-12-02T22:03:42.802Z,2.87
2017-12-02T22:06:12.164Z,3.23
2017-12-02T22:08:41.229Z,2.67
2017-12-02T22:11:10.331Z,3.33
2017-12-02T22:13:39.579Z,4.90
2017-12-02T22:16:08.892Z,4.53
2017-12-02T22:18:38.169Z,3.40
2017-12-02T22:21:07.448Z,3.20
2017-12-02T22:23:36.464Z,5.00
2017-12-02T22:26:05.537Z,3.17
2017-12-02T22:28:34.670Z,2.93
2017-12-02T22:31:09.803Z,2.80
2017-12-02T22:33:38.900Z,4.00
2017-12-02T22:36:07.973Z,2.97
2017-12-02T22:38:37.091Z,3.73
2017-12-02T22:41:06.122Z,3.43
2017-12-02T22:43:35.496Z,4.07
2017-12-02T22:46:04.886Z,3.10
2017-12-02T22:48:33.969Z,3.60
2017-12-02T22:51:03.031Z,4.70
2017-12-02T22:53:32.103Z,4.17
2017-12-02T22:56:01.165Z,3.73
2017-12-02T22:58:30.376Z,3.10
2017-12-02T23:00:59.442Z,3.00
2017-12-02T23:03:29.264Z,4.00
2017-12-02T23:05:58.303Z,3.67
2017-12-02T23:08:33.414Z,3.13
2017-12-02T23:11:02.463Z,3.20
2017-12-02T23:13:31.682Z,4.00
2017-12-02T23:16:00.696Z,3.30
2017-12-02T23:18:29.746Z,3.30
2017-12-02T23:20:58.831Z,2.67
2017-12-02T23:23:27.924Z,2.87
2017-12-02T23:25:57.022Z,2.67
2017-12-02T23:28:26.083Z,3.20
2017-12-02T23:30:55.158Z,2.90
2017-12-02T23:33:24.200Z,3.90
2017-12-02T23:35:53.243Z,2.90
2017-12-02T23:38:22.294Z,3.40
2017-12-02T23:40:51.317Z,3.57
2017-12-02T23:43:20.519Z,3.97
2017-12-02T23:45:55.338Z,2.67
2017-12-02T23:48:24.367Z,2.50
2017-12-02T23:50:59.512Z,2.60
2017-12-02T23:53:32.954Z,2.60
2017-12-02T23:56:01.995Z,3.17
2017-12-02T23:58:31.052Z,3.53
